Terminal Aerodrome Forecast
Issued by NWS Charleston, WV

Current Version | Previous Version | Text Only | Print | Product List | Glossary Off
Versions: 1 2 3 4 5 6 7 8 9 10 11 12 13 14 15 16 17 18 19 20 21 22 23 24 25 26 27 28

596
FTUS41 KRLX 212324
TAFEKN
TAF
KEKN 212324Z 2200/2224 27004KT P6SM SCT150
     FM220500 00000KT 2SM BR BKN035
     FM220700 00000KT 1/2SM FG BKN001
     FM221300 VRB03KT 3SM BR BKN080
     FM221500 22005KT P6SM BKN040
     FM222000 24006KT P6SM SHRA VCTS BKN035CB=

USA.gov is the U.S. government's official web portal to all federal, state and local government web resources and services.